createdAt,value
2018-06-05T00:00:28.966Z,17.30
2018-06-05T00:02:57.546Z,17.20
2018-06-05T00:05:26.561Z,17.20
2018-06-05T00:07:55.779Z,17.20
2018-06-05T00:10:24.336Z,17.20
2018-06-05T00:12:53.014Z,17.30
2018-06-05T00:15:21.640Z,17.40
2018-06-05T00:17:50.298Z,17.30
2018-06-05T00:20:19.067Z,17.30
2018-06-05T00:22:47.789Z,17.30
2018-06-05T00:25:16.532Z,17.30
2018-06-05T00:27:45.229Z,17.30
2018-06-05T00:30:13.913Z,17.30
2018-06-05T00:32:42.559Z,17.30
2018-06-05T00:35:11.312Z,17.30
2018-06-05T00:37:39.933Z,17.30
2018-06-05T00:40:09.502Z,17.20
2018-06-05T00:42:38.266Z,17.10
2018-06-05T00:45:06.946Z,17.10
2018-06-05T00:47:35.621Z,17.00
2018-06-05T00:50:04.363Z,16.90
2018-06-05T00:52:33.116Z,16.80
2018-06-05T00:55:01.782Z,16.70
2018-06-05T00:57:30.519Z,16.60
2018-06-05T01:02:27.459Z,16.60
2018-06-05T01:04:56.817Z,16.60
2018-06-05T01:07:25.494Z,16.50
2018-06-05T01:09:54.214Z,16.50
2018-06-05T01:12:22.843Z,16.40
2018-06-05T01:14:51.516Z,16.40
2018-06-05T01:19:48.553Z,16.20
2018-06-05T01:22:17.245Z,16.20
2018-06-05T01:24:45.895Z,16.30
2018-06-05T01:27:14.662Z,16.30
2018-06-05T01:29:43.618Z,16.30
2018-06-05T01:32:12.235Z,16.20
2018-06-05T01:34:40.906Z,16.20
2018-06-05T01:37:09.552Z,16.30
2018-06-05T01:39:38.217Z,16.20
2018-06-05T01:42:06.921Z,16.20
2018-06-05T01:44:35.571Z,16.10
2018-06-05T01:47:04.279Z,16.10
2018-06-05T01:49:38.157Z,16.00
2018-06-05T01:52:06.948Z,15.90
2018-06-05T01:54:35.598Z,15.90
2018-06-05T01:57:04.406Z,15.90
2018-06-05T01:59:33.085Z,15.90
2018-06-05T02:02:01.832Z,15.80
2018-06-05T02:04:30.445Z,15.80
2018-06-05T02:06:59.151Z,15.80
2018-06-05T02:09:27.770Z,15.80
2018-06-05T02:11:56.562Z,15.70
2018-06-05T02:14:25.201Z,15.70
2018-06-05T02:16:53.880Z,15.70
2018-06-05T02:19:22.517Z,15.60
2018-06-05T02:21:51.156Z,15.60
2018-06-05T02:24:19.766Z,15.50
2018-06-05T02:26:48.390Z,15.50
2018-06-05T02:29:17.063Z,15.50
2018-06-05T02:31:45.749Z,15.50
2018-06-05T02:34:14.424Z,15.60
2018-06-05T02:36:43.853Z,15.60
2018-06-05T02:39:12.521Z,15.60
2018-06-05T02:41:41.361Z,15.70
2018-06-05T02:44:10.016Z,15.60
2018-06-05T02:46:38.730Z,15.60
2018-06-05T02:49:07.399Z,15.50
2018-06-05T02:51:36.102Z,15.50
2018-06-05T02:54:04.767Z,15.60
2018-06-05T02:56:33.438Z,15.60
2018-06-05T02:59:02.122Z,15.60
2018-06-05T03:01:30.832Z,15.50
2018-06-05T03:03:59.611Z,15.40
2018-06-05T03:06:28.319Z,15.40
2018-06-05T03:08:57.043Z,15.30
2018-06-05T03:11:25.684Z,15.30
2018-06-05T03:13:54.385Z,15.20
2018-06-05T03:16:23.029Z,15.20
2018-06-05T03:18:52.063Z,15.20
2018-06-05T03:21:21.057Z,15.20
2018-06-05T03:23:49.737Z,15.20
2018-06-05T03:26:18.431Z,15.20
2018-06-05T03:28:47.144Z,15.20
2018-06-05T03:31:15.751Z,15.10
2018-06-05T03:33:44.383Z,15.10
2018-06-05T03:36:13.298Z,15.10
2018-06-05T03:38:42.047Z,15.10
2018-06-05T03:41:10.699Z,15.10
2018-06-05T03:43:39.342Z,15.10
2018-06-05T03:46:08.036Z,15.10
2018-06-05T03:48:36.751Z,15.20
2018-06-05T03:51:05.764Z,15.20
2018-06-05T03:53:34.478Z,15.20
2018-06-05T03:56:03.109Z,15.20
2018-06-05T03:58:31.746Z,15.20
2018-06-05T04:01:00.414Z,15.30
2018-06-05T04:03:29.154Z,15.30
2018-06-05T04:05:57.856Z,15.20
2018-06-05T04:08:26.707Z,15.20
2018-06-05T04:10:55.395Z,15.20
2018-06-05T04:13:24.067Z,15.20
2018-06-05T04:15:52.733Z,15.10
2018-06-05T04:18:21.438Z,15.10
2018-06-05T04:20:50.529Z,15.20
2018-06-05T04:23:19.243Z,15.20
2018-06-05T04:25:49.227Z,15.30
2018-06-05T04:28:17.845Z,15.30
2018-06-05T04:30:46.553Z,15.40
2018-06-05T04:33:15.195Z,15.40
2018-06-05T04:35:43.903Z,15.50
2018-06-05T04:38:12.596Z,15.50
2018-06-05T04:40:42.019Z,15.60
2018-06-05T04:43:10.707Z,15.60
2018-06-05T04:45:39.351Z,15.70
2018-06-05T04:48:08.067Z,15.80
2018-06-05T04:50:36.758Z,15.80
2018-06-05T04:53:05.508Z,15.90
2018-06-05T04:55:35.410Z,16.00
2018-06-05T04:58:04.164Z,16.10
2018-06-05T05:00:32.936Z,16.10
2018-06-05T05:03:01.676Z,16.20
2018-06-05T05:05:30.296Z,16.30
2018-06-05T05:07:58.977Z,16.30
2018-06-05T05:10:27.713Z,16.40
2018-06-05T05:12:56.396Z,16.40
2018-06-05T05:15:25.031Z,16.50
2018-06-05T05:17:53.655Z,16.50
2018-06-05T05:20:22.338Z,16.60
2018-06-05T05:22:50.943Z,16.70
2018-06-05T05:25:19.565Z,16.80
2018-06-05T05:27:48.270Z,16.90
2018-06-05T05:30:18.136Z,17.00
2018-06-05T05:32:46.798Z,17.10
2018-06-05T05:35:15.440Z,17.20
2018-06-05T05:37:44.142Z,17.30
2018-06-05T05:40:12.777Z,17.30
2018-06-05T05:42:41.417Z,17.40
2018-06-05T05:45:11.068Z,17.40
2018-06-05T05:47:39.833Z,17.50
2018-06-05T05:50:08.761Z,17.70
2018-06-05T05:52:37.439Z,17.80
2018-06-05T05:55:06.183Z,17.80
2018-06-05T05:57:34.919Z,17.90
2018-06-05T06:00:03.653Z,18.00
2018-06-05T06:02:32.315Z,18.20
2018-06-05T06:05:02.430Z,18.20
2018-06-05T06:07:31.158Z,18.30
2018-06-05T06:09:59.904Z,18.40
2018-06-05T06:12:28.567Z,18.60
2018-06-05T06:14:57.272Z,18.60
2018-06-05T06:17:25.899Z,18.80
2018-06-05T06:19:54.508Z,18.90
2018-06-05T06:22:23.247Z,19.10
2018-06-05T06:24:51.890Z,19.10
2018-06-05T06:27:20.564Z,19.10
2018-06-05T06:29:49.262Z,19.30
2018-06-05T06:32:18.179Z,19.50
2018-06-05T06:34:46.812Z,19.60
2018-06-05T06:37:15.540Z,19.80
2018-06-05T06:39:44.206Z,19.90
2018-06-05T06:42:13.286Z,20.10
2018-06-05T06:44:41.939Z,20.30
2018-06-05T06:47:11.084Z,20.40
2018-06-05T06:49:39.840Z,20.60
2018-06-05T06:52:08.580Z,20.70
2018-06-05T06:54:37.754Z,20.90
2018-06-05T06:57:06.441Z,21.10
2018-06-05T06:59:35.103Z,21.30
2018-06-05T07:02:03.707Z,21.40
2018-06-05T07:04:32.316Z,21.40
2018-06-05T07:07:01.378Z,21.70
2018-06-05T07:09:30.056Z,21.90
2018-06-05T07:11:58.727Z,22.10
2018-06-05T07:14:27.404Z,22.20
2018-06-05T07:16:56.525Z,22.40
2018-06-05T07:19:25.480Z,22.70
2018-06-05T07:21:54.239Z,22.90
2018-06-05T07:24:22.923Z,23.20
2018-06-05T07:27:03.740Z,23.40
2018-06-05T07:29:32.423Z,23.60
2018-06-05T07:32:01.169Z,23.80
2018-06-05T07:34:29.941Z,24.10
2018-06-05T07:36:58.554Z,24.20
2018-06-05T07:39:27.299Z,24.50
2018-06-05T07:41:56.032Z,24.80
2018-06-05T07:44:24.738Z,25.10
2018-06-05T07:46:53.330Z,25.20
2018-06-05T07:49:22.032Z,25.20
2018-06-05T07:51:50.707Z,25.30
2018-06-05T07:54:19.390Z,25.40
2018-06-05T07:56:47.982Z,25.60
2018-06-05T07:59:16.663Z,25.90
2018-06-05T08:01:45.295Z,25.90
2018-06-05T08:04:13.990Z,26.00
2018-06-05T08:06:42.601Z,25.70
2018-06-05T08:09:11.304Z,26.00
2018-06-05T08:11:39.963Z,26.40
2018-06-05T08:14:08.678Z,26.80
2018-06-05T08:16:37.333Z,26.70
2018-06-05T08:19:06.045Z,26.50
2018-06-05T08:21:34.746Z,26.40
2018-06-05T08:24:03.415Z,26.30
2018-06-05T08:26:50.702Z,26.20
2018-06-05T08:29:20.106Z,26.50
2018-06-05T08:31:49.008Z,26.70
2018-06-05T08:34:17.715Z,26.80
2018-06-05T08:36:46.363Z,27.10
2018-06-05T08:39:26.938Z,27.40
2018-06-05T08:41:55.532Z,27.90
2018-06-05T08:44:24.470Z,28.30
2018-06-05T08:46:53.184Z,27.90
2018-06-05T08:49:23.553Z,28.00
2018-06-05T08:51:52.920Z,28.40
2018-06-05T08:54:21.972Z,28.90
2018-06-05T08:56:50.621Z,29.50
2018-06-05T08:59:19.212Z,29.90
2018-06-05T09:01:47.889Z,30.10
2018-06-05T09:04:16.602Z,30.30
2018-06-05T09:06:45.533Z,29.90
2018-06-05T09:11:42.643Z,29.90
2018-06-05T09:14:11.278Z,29.30
2018-06-05T09:16:39.911Z,29.50
2018-06-05T09:19:08.547Z,29.90
2018-06-05T09:21:37.150Z,30.30
2018-06-05T09:24:05.840Z,30.90
2018-06-05T09:26:34.478Z,30.80
2018-06-05T09:29:03.223Z,31.00
2018-06-05T09:31:31.861Z,31.00
2018-06-05T09:34:00.694Z,31.30
2018-06-05T09:36:29.376Z,31.70
2018-06-05T09:38:58.015Z,31.70
2018-06-05T09:41:26.711Z,31.40
2018-06-05T09:43:55.414Z,31.10
2018-06-05T09:46:24.072Z,31.20
2018-06-05T09:48:52.718Z,31.70
2018-06-05T09:51:21.432Z,32.30
2018-06-05T09:53:50.050Z,32.60
2018-06-05T09:56:18.775Z,32.70
2018-06-05T09:58:47.454Z,33.10
2018-06-05T10:01:16.083Z,32.90
2018-06-05T10:03:44.760Z,32.80
2018-06-05T10:06:13.459Z,32.70
2018-06-05T10:08:42.044Z,32.90
2018-06-05T10:11:10.718Z,33.40
2018-06-05T10:13:39.395Z,34.00
2018-06-05T10:16:08.266Z,34.50
2018-06-05T10:18:36.944Z,34.60
2018-06-05T10:21:05.675Z,34.80
2018-06-05T10:23:34.300Z,35.00
2018-06-05T10:26:03.019Z,34.50
2018-06-05T10:28:31.614Z,34.20
2018-06-05T10:31:01.000Z,34.40
2018-06-05T10:33:29.686Z,34.50
2018-06-05T10:35:58.362Z,35.00
2018-06-05T10:38:27.012Z,35.40
2018-06-05T10:40:55.669Z,35.30
2018-06-05T10:43:24.342Z,35.20
2018-06-05T10:45:53.056Z,35.10
2018-06-05T10:48:21.711Z,35.50
2018-06-05T10:50:50.385Z,35.70
2018-06-05T10:53:18.990Z,36.30
2018-06-05T10:55:47.650Z,36.70
2018-06-05T10:58:16.349Z,36.70
2018-06-05T11:00:44.970Z,36.30
2018-06-05T11:03:13.596Z,35.80
2018-06-05T11:05:42.256Z,35.60
2018-06-05T11:08:10.917Z,35.80
2018-06-05T11:10:39.566Z,35.70
2018-06-05T11:13:08.220Z,35.90
2018-06-05T11:15:36.894Z,36.10
2018-06-05T11:18:05.555Z,36.00
2018-06-05T11:20:34.285Z,36.10
2018-06-05T11:23:02.982Z,36.20
2018-06-05T11:25:31.642Z,36.40
2018-06-05T11:28:00.364Z,36.70
2018-06-05T11:30:29.004Z,36.00
2018-06-05T11:32:57.678Z,35.30
2018-06-05T11:35:26.840Z,34.90
2018-06-05T11:37:55.505Z,35.10
2018-06-05T11:40:24.129Z,35.30
2018-06-05T11:42:52.834Z,35.20
2018-06-05T11:45:21.434Z,35.70
2018-06-05T11:47:50.083Z,36.10
2018-06-05T11:50:18.815Z,36.40
2018-06-05T11:52:47.434Z,37.10
2018-06-05T11:55:16.788Z,37.30
2018-06-05T11:57:45.438Z,36.60
2018-06-05T12:00:14.114Z,35.20
2018-06-05T12:05:11.494Z,35.50
2018-06-05T12:07:41.610Z,36.10
2018-06-05T12:10:10.250Z,36.40
2018-06-05T12:12:38.909Z,36.80
2018-06-05T12:15:07.614Z,36.80
2018-06-05T12:17:36.345Z,36.90
2018-06-05T12:20:05.090Z,37.30
2018-06-05T12:22:33.674Z,37.50
2018-06-05T12:25:02.266Z,36.90
2018-06-05T12:27:31.332Z,36.70
2018-06-05T12:30:00.000Z,36.90
2018-06-05T12:32:28.649Z,37.30
2018-06-05T12:34:57.268Z,37.70
2018-06-05T12:37:25.934Z,38.00
2018-06-05T12:39:54.549Z,37.90
2018-06-05T12:42:23.265Z,38.10
2018-06-05T12:44:52.467Z,38.10
2018-06-05T12:47:21.153Z,38.40
2018-06-05T12:52:56.850Z,38.50
2018-06-05T12:55:25.473Z,38.40
2018-06-05T12:57:54.119Z,38.70
2018-06-05T13:00:22.726Z,38.80
2018-06-05T13:02:51.408Z,38.70
2018-06-05T13:05:20.163Z,38.90
2018-06-05T13:07:51.007Z,39.20
2018-06-05T13:10:27.559Z,39.30
2018-06-05T13:12:57.971Z,39.10
2018-06-05T13:15:30.161Z,39.20
2018-06-05T13:18:00.418Z,39.40
2018-06-05T13:20:30.944Z,39.60
2018-06-05T13:22:59.773Z,39.30
2018-06-05T13:25:36.554Z,39.40
2018-06-05T13:28:05.614Z,39.70
2018-06-05T13:30:34.286Z,40.20
2018-06-05T13:33:03.551Z,40.60
2018-06-05T13:35:32.180Z,40.80
2018-06-05T13:38:01.389Z,40.90
2018-06-05T13:40:30.219Z,41.20
2018-06-05T13:42:58.976Z,42.00
2018-06-05T13:45:27.647Z,42.40
2018-06-05T13:47:56.258Z,42.60
2018-06-05T13:50:24.921Z,43.20
2018-06-05T13:52:53.547Z,44.10
2018-06-05T13:55:22.239Z,44.40
2018-06-05T13:57:50.842Z,44.90
2018-06-05T14:00:19.415Z,45.60
2018-06-05T14:02:49.691Z,46.50
2018-06-05T14:05:19.431Z,46.40
2018-06-05T14:07:48.114Z,46.60
2018-06-05T14:10:16.674Z,46.90
2018-06-05T14:12:45.890Z,47.30
2018-06-05T14:15:15.838Z,47.60
2018-06-05T14:17:45.934Z,48.00
2018-06-05T14:20:14.598Z,48.40
2018-06-05T14:22:43.233Z,48.20
2018-06-05T14:25:11.862Z,48.40
2018-06-05T14:27:40.602Z,48.70
2018-06-05T14:30:09.241Z,49.40
2018-06-05T14:32:37.987Z,50.10
2018-06-05T14:35:06.618Z,50.10
2018-06-05T14:37:35.207Z,49.10
2018-06-05T14:40:03.869Z,48.00
2018-06-05T14:42:32.491Z,48.50
2018-06-05T14:45:01.305Z,49.40
2018-06-05T14:47:32.241Z,49.80
2018-06-05T14:50:00.957Z,50.30
2018-06-05T14:52:29.723Z,50.50
2018-06-05T14:57:26.840Z,50.90
2018-06-05T14:59:57.792Z,51.30
2018-06-05T15:02:26.630Z,50.90
2018-06-05T15:04:55.237Z,50.60
2018-06-05T15:07:23.974Z,50.70
2018-06-05T15:09:53.282Z,50.90
2018-06-05T15:12:22.957Z,50.80
2018-06-05T15:14:51.587Z,50.70
2018-06-05T15:17:21.672Z,50.80
2018-06-05T15:19:53.524Z,50.60
2018-06-05T15:22:22.813Z,50.10
2018-06-05T15:24:53.126Z,49.90
2018-06-05T15:27:22.153Z,50.20
2018-06-05T15:29:50.810Z,49.30
2018-06-05T15:32:19.483Z,48.50
2018-06-05T15:34:48.441Z,48.30
2018-06-05T15:37:17.570Z,47.80
2018-06-05T15:39:46.861Z,46.30
2018-06-05T15:42:15.448Z,45.20
2018-06-05T15:44:44.167Z,44.80
2018-06-05T15:47:12.786Z,45.30
2018-06-05T15:49:42.490Z,46.20
2018-06-05T15:52:11.099Z,47.20
2018-06-05T15:54:40.155Z,46.80
2018-06-05T15:57:08.722Z,47.20
2018-06-05T15:59:37.372Z,47.80
2018-06-05T16:02:06.082Z,48.40
2018-06-05T16:04:34.712Z,48.20
2018-06-05T16:07:03.336Z,48.00
2018-06-05T16:09:32.047Z,48.00
2018-06-05T16:12:01.281Z,47.70
2018-06-05T16:14:29.971Z,47.80
2018-06-05T16:16:58.683Z,47.50
2018-06-05T16:19:27.367Z,47.50
2018-06-05T16:21:55.988Z,47.70
2018-06-05T16:24:24.612Z,47.20
2018-06-05T16:26:53.289Z,47.10
2018-06-05T16:29:22.007Z,47.10
2018-06-05T16:31:54.370Z,46.50
2018-06-05T16:34:23.017Z,46.20
2018-06-05T16:36:51.810Z,45.70
2018-06-05T16:39:21.061Z,45.80
2018-06-05T16:41:50.105Z,45.50
2018-06-05T16:44:18.739Z,45.00
2018-06-05T16:46:47.322Z,44.60
2018-06-05T16:49:15.937Z,44.40
2018-06-05T16:51:44.575Z,44.20
2018-06-05T16:54:13.456Z,44.30
2018-06-05T16:56:42.055Z,44.30
2018-06-05T16:59:10.747Z,44.10
2018-06-05T17:01:39.671Z,43.80
2018-06-05T17:04:08.785Z,43.70
2018-06-05T17:06:39.396Z,43.60
2018-06-05T17:09:08.675Z,43.10
2018-06-05T17:11:37.616Z,42.30
2018-06-05T17:14:06.406Z,41.80
2018-06-05T17:16:35.189Z,41.30
2018-06-05T17:19:04.112Z,40.90
2018-06-05T17:21:34.308Z,40.20
2018-06-05T17:24:02.913Z,39.30
2018-06-05T17:26:33.102Z,38.80
2018-06-05T17:29:01.562Z,38.30
2018-06-05T17:31:32.068Z,37.80
2018-06-05T17:34:01.435Z,37.50
2018-06-05T17:36:31.127Z,37.20
2018-06-05T17:39:00.083Z,37.40
2018-06-05T17:41:29.137Z,37.60
2018-06-05T17:43:58.124Z,37.40
2018-06-05T17:46:27.090Z,37.20
2018-06-05T17:48:56.082Z,36.70
2018-06-05T17:51:25.012Z,36.40
2018-06-05T17:53:53.834Z,36.10
2018-06-05T17:56:22.572Z,35.80
2018-06-05T17:58:51.366Z,35.70
2018-06-05T18:01:20.090Z,35.60
2018-06-05T18:03:48.955Z,35.30
2018-06-05T18:11:15.534Z,35.10
2018-06-05T18:13:44.277Z,35.10
2018-06-05T18:16:12.859Z,34.70
2018-06-05T18:18:41.439Z,34.30
2018-06-05T18:21:10.109Z,33.80
2018-06-05T18:23:38.791Z,33.30
2018-06-05T18:26:07.601Z,32.70
2018-06-05T18:28:36.284Z,32.30
2018-06-05T18:31:04.999Z,31.90
2018-06-05T18:33:33.685Z,31.70
2018-06-05T18:36:02.436Z,31.50
2018-06-05T18:38:31.117Z,31.10
2018-06-05T18:40:59.889Z,30.70
2018-06-05T18:43:28.651Z,30.20
2018-06-05T18:45:57.710Z,30.00
2018-06-05T18:48:27.179Z,29.70
2018-06-05T18:50:55.869Z,29.40
2018-06-05T18:53:25.005Z,29.20
2018-06-05T18:55:54.347Z,28.80
2018-06-05T18:58:23.091Z,28.60
2018-06-05T19:00:52.066Z,28.40
2018-06-05T19:03:20.737Z,28.40
2018-06-05T19:05:49.405Z,28.20
2018-06-05T19:08:18.059Z,28.10
2018-06-05T19:10:46.854Z,27.90
2018-06-05T19:13:17.710Z,27.70
2018-06-05T19:15:47.408Z,27.30
2018-06-05T19:18:17.602Z,27.10
2018-06-05T19:20:46.318Z,27.00
2018-06-05T19:23:15.022Z,26.80
2018-06-05T19:25:43.696Z,26.50
2018-06-05T19:28:12.354Z,26.30
2018-06-05T19:30:41.089Z,26.10
2018-06-05T19:33:10.571Z,26.00
2018-06-05T19:35:40.837Z,25.80
2018-06-05T19:38:09.833Z,25.60
2018-06-05T19:40:39.583Z,25.30
2018-06-05T19:43:10.249Z,25.30
2018-06-05T19:45:39.027Z,25.20
2018-06-05T19:48:07.924Z,25.10
2018-06-05T19:50:37.901Z,25.10
2018-06-05T19:53:07.029Z,25.10
2018-06-05T19:55:37.988Z,25.00
2018-06-05T19:58:08.919Z,25.00
2018-06-05T20:00:37.678Z,25.00
2018-06-05T20:03:06.787Z,24.90
2018-06-05T20:05:35.589Z,24.80
2018-06-05T20:08:04.348Z,24.70
2018-06-05T20:10:33.226Z,24.60
2018-06-05T20:13:02.750Z,24.50
2018-06-05T20:15:31.852Z,24.40
2018-06-05T20:18:01.289Z,24.30
2018-06-05T20:20:30.322Z,24.10
2018-06-05T20:22:59.219Z,24.10
2018-06-05T20:25:27.934Z,24.00
2018-06-05T20:27:56.625Z,23.90
2018-06-05T20:30:25.715Z,23.90
2018-06-05T20:32:54.651Z,23.80
2018-06-05T20:35:23.395Z,23.70
2018-06-05T20:37:54.119Z,23.50
2018-06-05T20:40:22.845Z,23.40
2018-06-05T20:42:51.571Z,23.40
2018-06-05T20:47:48.839Z,23.10
2018-06-05T20:50:17.761Z,23.00
2018-06-05T20:52:47.771Z,23.00
2018-06-05T20:55:16.487Z,23.00
2018-06-05T20:57:45.233Z,22.90
2018-06-05T21:00:15.505Z,22.80
2018-06-05T21:02:44.274Z,22.70
2018-06-05T21:05:13.003Z,22.70
2018-06-05T21:07:41.687Z,22.60
2018-06-05T21:10:10.435Z,22.60
2018-06-05T21:12:39.121Z,22.50
2018-06-05T21:15:07.859Z,22.40
2018-06-05T21:17:36.533Z,22.40
2018-06-05T21:20:05.240Z,22.30
2018-06-05T21:22:34.038Z,22.20
2018-06-05T21:25:02.770Z,22.10
2018-06-05T21:27:31.383Z,22.00
2018-06-05T21:30:00.078Z,22.00
2018-06-05T21:32:28.723Z,21.90
2018-06-05T21:34:57.414Z,21.90
2018-06-05T21:37:26.055Z,21.70
2018-06-05T21:39:54.679Z,21.60
2018-06-05T21:42:23.344Z,21.50
2018-06-05T21:44:52.838Z,21.40
2018-06-05T21:47:21.575Z,21.40
2018-06-05T21:49:50.219Z,21.30
2018-06-05T21:52:18.906Z,21.20
2018-06-05T21:54:47.582Z,21.10
2018-06-05T21:57:16.241Z,21.00
2018-06-05T21:59:44.898Z,20.90
2018-06-05T22:02:13.572Z,20.90
2018-06-05T22:04:42.314Z,20.90
2018-06-05T22:07:10.899Z,20.90
2018-06-05T22:09:39.611Z,20.90
2018-06-05T22:12:08.520Z,20.90
2018-06-05T22:14:37.214Z,20.80
2018-06-05T22:17:05.874Z,20.70
2018-06-05T22:19:34.526Z,20.70
2018-06-05T22:22:03.184Z,20.70
2018-06-05T22:27:00.212Z,20.60
2018-06-05T22:29:28.859Z,20.40
2018-06-05T22:31:57.666Z,20.40
2018-06-05T22:34:26.925Z,20.30
2018-06-05T22:36:55.539Z,20.20
2018-06-05T22:39:27.695Z,20.10
2018-06-05T22:41:56.413Z,20.10
2018-06-05T22:44:25.102Z,20.00
2018-06-05T22:46:53.766Z,20.00
2018-06-05T22:49:22.327Z,20.00
2018-06-05T22:51:51.706Z,20.00
2018-06-05T22:54:20.320Z,19.90
2018-06-05T22:56:48.983Z,19.90
2018-06-05T22:59:17.657Z,19.90
2018-06-05T23:01:46.348Z,19.70
2018-06-05T23:04:15.023Z,19.60
2018-06-05T23:06:43.777Z,19.40
2018-06-05T23:09:12.465Z,19.40
2018-06-05T23:11:41.216Z,19.30
2018-06-05T23:14:09.806Z,19.20
2018-06-05T23:16:38.496Z,19.10
2018-06-05T23:19:07.153Z,19.00
2018-06-05T23:21:35.867Z,19.00
2018-06-05T23:24:04.528Z,19.00
2018-06-05T23:26:33.222Z,19.00
2018-06-05T23:29:01.957Z,19.00
2018-06-05T23:31:31.229Z,18.90
2018-06-05T23:33:59.868Z,18.90
2018-06-05T23:36:28.586Z,18.90
2018-06-05T23:38:57.359Z,18.90
2018-06-05T23:41:26.108Z,18.70
2018-06-05T23:46:23.044Z,18.60
2018-06-05T23:48:51.763Z,18.50
2018-06-05T23:51:20.410Z,18.60
2018-06-05T23:53:49.075Z,18.60
2018-06-05T23:56:17.773Z,18.60
2018-06-05T23:58:46.462Z,18.60
